sensor_id;sensor_type;location;lat;lon;timestamp;P1;durP1;ratioP1;P2;durP2;ratioP2
43150;SDS011;28755;51.478;5.702;2023-11-21T00:00:13;28.55;;;16.25;;
43150;SDS011;28755;51.478;5.702;2023-11-21T00:02:42;32.13;;;16.98;;
43150;SDS011;28755;51.478;5.702;2023-11-21T00:05:09;34.78;;;18.08;;
43150;SDS011;28755;51.478;5.702;2023-11-21T00:07:36;38.65;;;18.92;;
43150;SDS011;28755;51.478;5.702;2023-11-21T00:10:02;35.60;;;18.20;;
43150;SDS011;28755;51.478;5.702;2023-11-21T00:12:30;34.80;;;17.92;;
43150;SDS011;28755;51.478;5.702;2023-11-21T00:14:56;31.13;;;17.60;;
43150;SDS011;28755;51.478;5.702;2023-11-21T00:17:22;35.55;;;17.33;;
43150;SDS011;28755;51.478;5.702;2023-11-21T00:19:48;33.05;;;17.27;;
43150;SDS011;28755;51.478;5.702;2023-11-21T00:22:14;31.90;;;17.77;;
43150;SDS011;28755;51.478;5.702;2023-11-21T00:24:41;30.88;;;17.92;;
43150;SDS011;28755;51.478;5.702;2023-11-21T00:27:06;33.33;;;17.77;;
43150;SDS011;28755;51.478;5.702;2023-11-21T00:29:32;27.42;;;16.52;;
43150;SDS011;28755;51.478;5.702;2023-11-21T00:31:57;36.58;;;17.13;;
43150;SDS011;28755;51.478;5.702;2023-11-21T00:34:23;27.27;;;16.00;;
43150;SDS011;28755;51.478;5.702;2023-11-21T00:36:49;28.33;;;16.45;;
43150;SDS011;28755;51.478;5.702;2023-11-21T00:39:14;29.25;;;16.30;;
43150;SDS011;28755;51.478;5.702;2023-11-21T00:41:40;34.42;;;16.77;;
43150;SDS011;28755;51.478;5.702;2023-11-21T00:44:06;29.20;;;16.17;;
43150;SDS011;28755;51.478;5.702;2023-11-21T00:46:32;26.67;;;16.55;;
43150;SDS011;28755;51.478;5.702;2023-11-21T00:48:58;30.65;;;17.38;;
43150;SDS011;28755;51.478;5.702;2023-11-21T00:51:23;35.47;;;16.13;;
43150;SDS011;28755;51.478;5.702;2023-11-21T00:53:49;33.90;;;17.38;;
43150;SDS011;28755;51.478;5.702;2023-11-21T00:56:15;27.05;;;16.17;;
43150;SDS011;28755;51.478;5.702;2023-11-21T00:58:41;33.33;;;17.48;;
43150;SDS011;28755;51.478;5.702;2023-11-21T01:01:14;30.95;;;16.70;;
43150;SDS011;28755;51.478;5.702;2023-11-21T01:03:40;28.60;;;16.95;;
43150;SDS011;28755;51.478;5.702;2023-11-21T01:06:05;29.60;;;16.70;;
43150;SDS011;28755;51.478;5.702;2023-11-21T01:08:32;28.83;;;16.30;;
43150;SDS011;28755;51.478;5.702;2023-11-21T01:10:57;27.65;;;17.10;;
43150;SDS011;28755;51.478;5.702;2023-11-21T01:13:23;32.42;;;17.88;;
43150;SDS011;28755;51.478;5.702;2023-11-21T01:15:54;29.80;;;17.13;;
43150;SDS011;28755;51.478;5.702;2023-11-21T01:18:20;29.67;;;18.02;;
43150;SDS011;28755;51.478;5.702;2023-11-21T01:20:46;32.92;;;18.23;;
43150;SDS011;28755;51.478;5.702;2023-11-21T01:23:12;29.92;;;17.75;;
43150;SDS011;28755;51.478;5.702;2023-11-21T01:25:38;32.25;;;18.02;;
43150;SDS011;28755;51.478;5.702;2023-11-21T01:28:03;38.35;;;18.83;;
43150;SDS011;28755;51.478;5.702;2023-11-21T01:30:29;30.10;;;17.48;;
43150;SDS011;28755;51.478;5.702;2023-11-21T01:32:55;31.02;;;18.08;;
43150;SDS011;28755;51.478;5.702;2023-11-21T01:35:21;31.48;;;18.00;;
43150;SDS011;28755;51.478;5.702;2023-11-21T01:37:47;31.48;;;18.45;;
43150;SDS011;28755;51.478;5.702;2023-11-21T01:40:13;31.80;;;18.73;;
43150;SDS011;28755;51.478;5.702;2023-11-21T01:42:39;34.78;;;18.85;;
43150;SDS011;28755;51.478;5.702;2023-11-21T01:45:05;35.72;;;19.08;;
43150;SDS011;28755;51.478;5.702;2023-11-21T01:47:32;32.75;;;18.33;;
43150;SDS011;28755;51.478;5.702;2023-11-21T01:49:59;32.13;;;18.08;;
43150;SDS011;28755;51.478;5.702;2023-11-21T01:52:25;32.83;;;18.33;;
43150;SDS011;28755;51.478;5.702;2023-11-21T01:54:51;29.85;;;18.35;;
43150;SDS011;28755;51.478;5.702;2023-11-21T01:57:18;33.92;;;18.85;;
43150;SDS011;28755;51.478;5.702;2023-11-21T01:59:45;38.65;;;20.02;;
43150;SDS011;28755;51.478;5.702;2023-11-21T02:02:13;38.22;;;20.40;;
43150;SDS011;28755;51.478;5.702;2023-11-21T02:04:40;37.20;;;18.85;;
43150;SDS011;28755;51.478;5.702;2023-11-21T02:07:07;33.38;;;19.88;;
43150;SDS011;28755;51.478;5.702;2023-11-21T02:09:33;35.53;;;20.05;;
43150;SDS011;28755;51.478;5.702;2023-11-21T02:11:59;32.67;;;17.98;;
43150;SDS011;28755;51.478;5.702;2023-11-21T02:14:26;35.15;;;19.17;;
43150;SDS011;28755;51.478;5.702;2023-11-21T02:16:53;38.08;;;19.33;;
43150;SDS011;28755;51.478;5.702;2023-11-21T02:19:19;33.33;;;20.38;;
43150;SDS011;28755;51.478;5.702;2023-11-21T02:21:50;37.85;;;19.67;;
43150;SDS011;28755;51.478;5.702;2023-11-21T02:24:19;32.90;;;19.20;;
43150;SDS011;28755;51.478;5.702;2023-11-21T02:26:46;35.58;;;19.30;;
43150;SDS011;28755;51.478;5.702;2023-11-21T02:29:12;39.58;;;21.25;;
43150;SDS011;28755;51.478;5.702;2023-11-21T02:31:38;46.53;;;23.05;;
43150;SDS011;28755;51.478;5.702;2023-11-21T02:34:13;48.83;;;21.55;;
43150;SDS011;28755;51.478;5.702;2023-11-21T02:36:39;46.75;;;23.33;;
43150;SDS011;28755;51.478;5.702;2023-11-21T02:39:05;62.45;;;24.08;;
43150;SDS011;28755;51.478;5.702;2023-11-21T02:41:32;61.00;;;23.13;;
43150;SDS011;28755;51.478;5.702;2023-11-21T02:43:59;56.88;;;24.05;;
43150;SDS011;28755;51.478;5.702;2023-11-21T02:46:25;122.85;;;24.42;;
43150;SDS011;28755;51.478;5.702;2023-11-21T02:48:51;84.60;;;24.98;;
43150;SDS011;28755;51.478;5.702;2023-11-21T02:51:19;124.03;;;23.35;;
43150;SDS011;28755;51.478;5.702;2023-11-21T02:53:44;92.35;;;24.08;;
43150;SDS011;28755;51.478;5.702;2023-11-21T02:56:11;101.63;;;24.95;;
43150;SDS011;28755;51.478;5.702;2023-11-21T02:58:40;81.07;;;26.02;;
43150;SDS011;28755;51.478;5.702;2023-11-21T03:01:06;99.60;;;25.40;;
43150;SDS011;28755;51.478;5.702;2023-11-21T03:03:33;99.22;;;25.58;;
43150;SDS011;28755;51.478;5.702;2023-11-21T03:05:58;74.80;;;25.55;;
43150;SDS011;28755;51.478;5.702;2023-11-21T03:08:24;131.70;;;25.00;;
43150;SDS011;28755;51.478;5.702;2023-11-21T03:10:50;75.85;;;24.58;;
43150;SDS011;28755;51.478;5.702;2023-11-21T03:13:15;101.15;;;24.38;;
43150;SDS011;28755;51.478;5.702;2023-11-21T03:15:41;109.88;;;24.60;;
43150;SDS011;28755;51.478;5.702;2023-11-21T03:18:07;116.20;;;24.73;;
43150;SDS011;28755;51.478;5.702;2023-11-21T03:20:33;91.70;;;25.05;;
43150;SDS011;28755;51.478;5.702;2023-11-21T03:22:59;53.63;;;24.20;;
43150;SDS011;28755;51.478;5.702;2023-11-21T03:25:25;64.28;;;25.60;;
43150;SDS011;28755;51.478;5.702;2023-11-21T03:27:51;64.38;;;26.35;;
43150;SDS011;28755;51.478;5.702;2023-11-21T03:30:17;61.55;;;25.02;;
43150;SDS011;28755;51.478;5.702;2023-11-21T03:32:42;67.35;;;26.52;;
43150;SDS011;28755;51.478;5.702;2023-11-21T03:35:08;66.22;;;26.48;;
43150;SDS011;28755;51.478;5.702;2023-11-21T03:37:34;69.53;;;25.80;;
43150;SDS011;28755;51.478;5.702;2023-11-21T03:39:59;112.70;;;25.60;;
43150;SDS011;28755;51.478;5.702;2023-11-21T03:42:25;136.52;;;28.33;;
43150;SDS011;28755;51.478;5.702;2023-11-21T03:44:51;123.13;;;26.10;;
43150;SDS011;28755;51.478;5.702;2023-11-21T03:47:17;94.95;;;24.17;;
43150;SDS011;28755;51.478;5.702;2023-11-21T03:49:44;190.77;;;26.75;;
43150;SDS011;28755;51.478;5.702;2023-11-21T03:52:10;145.18;;;25.90;;
43150;SDS011;28755;51.478;5.702;2023-11-21T03:54:36;60.55;;;25.73;;
43150;SDS011;28755;51.478;5.702;2023-11-21T03:57:02;87.45;;;25.88;;
43150;SDS011;28755;51.478;5.702;2023-11-21T03:59:28;153.70;;;25.92;;
43150;SDS011;28755;51.478;5.702;2023-11-21T04:01:57;76.90;;;24.40;;
43150;SDS011;28755;51.478;5.702;2023-11-21T04:04:23;82.53;;;26.48;;
43150;SDS011;28755;51.478;5.702;2023-11-21T04:06:48;120.10;;;25.45;;
43150;SDS011;28755;51.478;5.702;2023-11-21T04:09:14;173.88;;;28.33;;
43150;SDS011;28755;51.478;5.702;2023-11-21T04:11:39;84.53;;;25.77;;
43150;SDS011;28755;51.478;5.702;2023-11-21T04:14:05;126.53;;;25.65;;
43150;SDS011;28755;51.478;5.702;2023-11-21T04:16:31;102.00;;;26.70;;
43150;SDS011;28755;51.478;5.702;2023-11-21T04:18:56;80.80;;;26.73;;
43150;SDS011;28755;51.478;5.702;2023-11-21T04:21:22;86.93;;;27.15;;
43150;SDS011;28755;51.478;5.702;2023-11-21T04:23:49;78.97;;;27.10;;
43150;SDS011;28755;51.478;5.702;2023-11-21T04:26:14;81.63;;;29.13;;
43150;SDS011;28755;51.478;5.702;2023-11-21T04:28:40;64.40;;;28.08;;
43150;SDS011;28755;51.478;5.702;2023-11-21T04:31:05;82.68;;;29.67;;
43150;SDS011;28755;51.478;5.702;2023-11-21T04:33:32;88.13;;;27.80;;
43150;SDS011;28755;51.478;5.702;2023-11-21T04:35:57;83.97;;;30.27;;
43150;SDS011;28755;51.478;5.702;2023-11-21T04:38:23;111.63;;;29.02;;
43150;SDS011;28755;51.478;5.702;2023-11-21T04:40:49;125.93;;;27.98;;
43150;SDS011;28755;51.478;5.702;2023-11-21T04:43:14;66.75;;;29.17;;
43150;SDS011;28755;51.478;5.702;2023-11-21T04:45:40;108.10;;;28.52;;
43150;SDS011;28755;51.478;5.702;2023-11-21T04:48:06;114.38;;;29.65;;
43150;SDS011;28755;51.478;5.702;2023-11-21T04:50:33;105.00;;;28.52;;
43150;SDS011;28755;51.478;5.702;2023-11-21T04:52:59;145.88;;;28.67;;
43150;SDS011;28755;51.478;5.702;2023-11-21T04:55:24;101.57;;;28.10;;
43150;SDS011;28755;51.478;5.702;2023-11-21T04:57:53;154.45;;;28.65;;
43150;SDS011;28755;51.478;5.702;2023-11-21T05:00:19;131.70;;;28.85;;
43150;SDS011;28755;51.478;5.702;2023-11-21T05:02:46;103.15;;;29.38;;
43150;SDS011;28755;51.478;5.702;2023-11-21T05:05:12;124.75;;;28.30;;
43150;SDS011;28755;51.478;5.702;2023-11-21T05:07:38;123.93;;;28.73;;
43150;SDS011;28755;51.478;5.702;2023-11-21T05:10:07;149.18;;;28.58;;
43150;SDS011;28755;51.478;5.702;2023-11-21T05:12:36;130.15;;;30.02;;
43150;SDS011;28755;51.478;5.702;2023-11-21T05:15:03;79.50;;;28.08;;
43150;SDS011;28755;51.478;5.702;2023-11-21T05:17:36;99.35;;;26.85;;
43150;SDS011;28755;51.478;5.702;2023-11-21T05:20:04;103.47;;;28.05;;
43150;SDS011;28755;51.478;5.702;2023-11-21T05:22:33;101.82;;;27.80;;
43150;SDS011;28755;51.478;5.702;2023-11-21T05:24:59;91.53;;;28.65;;
43150;SDS011;28755;51.478;5.702;2023-11-21T05:27:25;130.90;;;28.13;;
43150;SDS011;28755;51.478;5.702;2023-11-21T05:29:51;97.13;;;28.67;;
43150;SDS011;28755;51.478;5.702;2023-11-21T05:32:17;55.13;;;26.60;;
43150;SDS011;28755;51.478;5.702;2023-11-21T05:34:42;60.78;;;27.83;;
43150;SDS011;28755;51.478;5.702;2023-11-21T05:37:08;68.10;;;27.45;;
43150;SDS011;28755;51.478;5.702;2023-11-21T05:39:34;69.22;;;27.48;;
43150;SDS011;28755;51.478;5.702;2023-11-21T05:42:00;56.03;;;26.83;;
43150;SDS011;28755;51.478;5.702;2023-11-21T05:44:26;88.50;;;29.45;;
43150;SDS011;28755;51.478;5.702;2023-11-21T05:46:52;60.63;;;28.13;;
43150;SDS011;28755;51.478;5.702;2023-11-21T05:49:18;56.53;;;28.98;;
43150;SDS011;28755;51.478;5.702;2023-11-21T05:51:46;65.85;;;28.67;;
43150;SDS011;28755;51.478;5.702;2023-11-21T05:54:12;63.88;;;29.30;;
43150;SDS011;28755;51.478;5.702;2023-11-21T05:56:38;67.95;;;28.75;;
43150;SDS011;28755;51.478;5.702;2023-11-21T05:59:03;64.85;;;28.35;;
43150;SDS011;28755;51.478;5.702;2023-11-21T06:01:29;57.05;;;27.42;;
43150;SDS011;28755;51.478;5.702;2023-11-21T06:03:55;62.38;;;27.33;;
43150;SDS011;28755;51.478;5.702;2023-11-21T06:06:21;48.65;;;25.85;;
43150;SDS011;28755;51.478;5.702;2023-11-21T06:08:48;51.35;;;27.52;;
43150;SDS011;28755;51.478;5.702;2023-11-21T06:11:14;49.30;;;26.50;;
43150;SDS011;28755;51.478;5.702;2023-11-21T06:13:41;46.22;;;27.08;;
43150;SDS011;28755;51.478;5.702;2023-11-21T06:16:07;44.10;;;27.33;;
43150;SDS011;28755;51.478;5.702;2023-11-21T06:18:32;47.88;;;27.88;;
43150;SDS011;28755;51.478;5.702;2023-11-21T06:20:58;49.08;;;25.63;;
43150;SDS011;28755;51.478;5.702;2023-11-21T06:23:25;46.22;;;26.38;;
43150;SDS011;28755;51.478;5.702;2023-11-21T06:25:51;44.10;;;27.52;;
43150;SDS011;28755;51.478;5.702;2023-11-21T06:28:17;46.95;;;26.67;;
43150;SDS011;28755;51.478;5.702;2023-11-21T06:30:43;49.67;;;27.35;;
43150;SDS011;28755;51.478;5.702;2023-11-21T06:33:10;53.55;;;27.55;;
43150;SDS011;28755;51.478;5.702;2023-11-21T06:35:36;54.35;;;27.08;;
43150;SDS011;28755;51.478;5.702;2023-11-21T06:38:02;49.03;;;27.63;;
43150;SDS011;28755;51.478;5.702;2023-11-21T06:40:28;51.97;;;27.15;;
43150;SDS011;28755;51.478;5.702;2023-11-21T06:42:53;49.53;;;27.38;;
43150;SDS011;28755;51.478;5.702;2023-11-21T06:45:19;51.97;;;27.27;;
43150;SDS011;28755;51.478;5.702;2023-11-21T06:47:45;57.55;;;27.77;;
43150;SDS011;28755;51.478;5.702;2023-11-21T06:50:11;57.50;;;28.63;;
43150;SDS011;28755;51.478;5.702;2023-11-21T06:52:36;53.53;;;28.08;;
43150;SDS011;28755;51.478;5.702;2023-11-21T06:55:02;51.60;;;26.50;;
43150;SDS011;28755;51.478;5.702;2023-11-21T06:57:28;58.72;;;27.58;;
43150;SDS011;28755;51.478;5.702;2023-11-21T06:59:53;58.67;;;27.35;;
43150;SDS011;28755;51.478;5.702;2023-11-21T07:02:19;54.78;;;27.77;;
43150;SDS011;28755;51.478;5.702;2023-11-21T07:04:45;64.63;;;29.40;;
43150;SDS011;28755;51.478;5.702;2023-11-21T07:07:11;61.15;;;28.38;;
43150;SDS011;28755;51.478;5.702;2023-11-21T07:09:37;61.38;;;28.77;;
43150;SDS011;28755;51.478;5.702;2023-11-21T07:12:02;58.85;;;29.30;;
43150;SDS011;28755;51.478;5.702;2023-11-21T07:14:31;67.30;;;28.67;;
43150;SDS011;28755;51.478;5.702;2023-11-21T07:16:57;63.05;;;28.40;;
43150;SDS011;28755;51.478;5.702;2023-11-21T07:19:22;59.03;;;28.10;;
43150;SDS011;28755;51.478;5.702;2023-11-21T07:21:48;71.55;;;30.13;;
43150;SDS011;28755;51.478;5.702;2023-11-21T07:24:17;64.90;;;29.75;;
43150;SDS011;28755;51.478;5.702;2023-11-21T07:26:43;64.53;;;30.13;;
43150;SDS011;28755;51.478;5.702;2023-11-21T07:29:08;70.28;;;31.95;;
43150;SDS011;28755;51.478;5.702;2023-11-21T07:31:34;66.78;;;32.90;;
43150;SDS011;28755;51.478;5.702;2023-11-21T07:34:00;67.28;;;32.15;;
43150;SDS011;28755;51.478;5.702;2023-11-21T07:36:25;65.97;;;31.30;;
43150;SDS011;28755;51.478;5.702;2023-11-21T07:38:51;65.03;;;30.98;;
43150;SDS011;28755;51.478;5.702;2023-11-21T07:41:17;71.35;;;31.98;;
43150;SDS011;28755;51.478;5.702;2023-11-21T07:43:44;71.50;;;31.40;;
43150;SDS011;28755;51.478;5.702;2023-11-21T07:46:10;74.63;;;31.58;;
43150;SDS011;28755;51.478;5.702;2023-11-21T07:48:37;76.30;;;33.03;;
43150;SDS011;28755;51.478;5.702;2023-11-21T07:51:04;78.97;;;32.58;;
43150;SDS011;28755;51.478;5.702;2023-11-21T07:53:30;94.38;;;32.70;;
43150;SDS011;28755;51.478;5.702;2023-11-21T07:55:56;71.95;;;32.63;;
43150;SDS011;28755;51.478;5.702;2023-11-21T07:58:22;82.47;;;31.70;;
43150;SDS011;28755;51.478;5.702;2023-11-21T08:00:49;70.90;;;31.20;;
43150;SDS011;28755;51.478;5.702;2023-11-21T08:03:15;83.82;;;31.48;;
43150;SDS011;28755;51.478;5.702;2023-11-21T08:05:41;74.18;;;31.98;;
43150;SDS011;28755;51.478;5.702;2023-11-21T08:08:07;65.10;;;29.60;;
43150;SDS011;28755;51.478;5.702;2023-11-21T08:10:33;83.53;;;32.47;;
43150;SDS011;28755;51.478;5.702;2023-11-21T08:12:58;81.75;;;32.97;;
43150;SDS011;28755;51.478;5.702;2023-11-21T08:15:24;80.40;;;33.08;;
43150;SDS011;28755;51.478;5.702;2023-11-21T08:17:50;71.72;;;31.10;;
43150;SDS011;28755;51.478;5.702;2023-11-21T08:20:15;68.90;;;30.65;;
43150;SDS011;28755;51.478;5.702;2023-11-21T08:22:43;73.38;;;31.40;;
43150;SDS011;28755;51.478;5.702;2023-11-21T08:25:09;61.95;;;29.73;;
43150;SDS011;28755;51.478;5.702;2023-11-21T08:27:35;62.83;;;28.38;;
43150;SDS011;28755;51.478;5.702;2023-11-21T08:30:01;54.20;;;27.30;;
43150;SDS011;28755;51.478;5.702;2023-11-21T08:32:29;59.92;;;27.25;;
43150;SDS011;28755;51.478;5.702;2023-11-21T08:34:57;58.20;;;27.08;;
43150;SDS011;28755;51.478;5.702;2023-11-21T08:37:23;50.40;;;26.85;;
43150;SDS011;28755;51.478;5.702;2023-11-21T08:39:49;48.92;;;27.25;;
43150;SDS011;28755;51.478;5.702;2023-11-21T08:42:14;51.65;;;27.17;;
43150;SDS011;28755;51.478;5.702;2023-11-21T08:44:40;63.75;;;27.83;;
43150;SDS011;28755;51.478;5.702;2023-11-21T08:47:06;54.72;;;27.02;;
43150;SDS011;28755;51.478;5.702;2023-11-21T08:49:32;49.88;;;26.08;;
43150;SDS011;28755;51.478;5.702;2023-11-21T08:51:58;53.60;;;27.40;;
43150;SDS011;28755;51.478;5.702;2023-11-21T08:54:24;49.22;;;25.67;;
43150;SDS011;28755;51.478;5.702;2023-11-21T08:56:51;57.35;;;27.50;;
43150;SDS011;28755;51.478;5.702;2023-11-21T08:59:20;53.65;;;27.35;;
43150;SDS011;28755;51.478;5.702;2023-11-21T09:01:46;56.00;;;27.95;;
43150;SDS011;28755;51.478;5.702;2023-11-21T09:04:12;52.38;;;26.25;;
43150;SDS011;28755;51.478;5.702;2023-11-21T09:06:38;50.90;;;26.48;;
43150;SDS011;28755;51.478;5.702;2023-11-21T09:09:04;51.70;;;26.83;;
43150;SDS011;28755;51.478;5.702;2023-11-21T09:11:31;55.75;;;26.75;;
43150;SDS011;28755;51.478;5.702;2023-11-21T09:13:59;49.53;;;26.85;;
43150;SDS011;28755;51.478;5.702;2023-11-21T09:16:25;52.55;;;26.95;;
43150;SDS011;28755;51.478;5.702;2023-11-21T09:18:51;50.60;;;25.90;;
43150;SDS011;28755;51.478;5.702;2023-11-21T09:21:16;45.03;;;25.77;;
43150;SDS011;28755;51.478;5.702;2023-11-21T09:23:45;49.92;;;26.58;;
43150;SDS011;28755;51.478;5.702;2023-11-21T09:26:11;50.05;;;26.88;;
43150;SDS011;28755;51.478;5.702;2023-11-21T09:28:37;47.05;;;25.52;;
43150;SDS011;28755;51.478;5.702;2023-11-21T09:31:07;47.85;;;25.40;;
43150;SDS011;28755;51.478;5.702;2023-11-21T09:33:34;43.92;;;25.15;;
43150;SDS011;28755;51.478;5.702;2023-11-21T09:35:59;43.92;;;23.48;;
43150;SDS011;28755;51.478;5.702;2023-11-21T09:38:26;41.53;;;23.02;;
43150;SDS011;28755;51.478;5.702;2023-11-21T09:40:54;41.60;;;23.33;;
43150;SDS011;28755;51.478;5.702;2023-11-21T09:43:20;40.05;;;23.70;;
43150;SDS011;28755;51.478;5.702;2023-11-21T09:45:47;44.55;;;23.20;;
43150;SDS011;28755;51.478;5.702;2023-11-21T09:48:19;38.63;;;23.60;;
43150;SDS011;28755;51.478;5.702;2023-11-21T09:50:45;41.85;;;22.67;;
43150;SDS011;28755;51.478;5.702;2023-11-21T09:53:13;41.72;;;22.42;;
43150;SDS011;28755;51.478;5.702;2023-11-21T09:55:41;48.15;;;22.77;;
43150;SDS011;28755;51.478;5.702;2023-11-21T09:58:09;39.20;;;23.27;;
43150;SDS011;28755;51.478;5.702;2023-11-21T10:00:38;47.15;;;24.05;;
43150;SDS011;28755;51.478;5.702;2023-11-21T10:03:09;43.58;;;24.27;;
43150;SDS011;28755;51.478;5.702;2023-11-21T10:05:36;37.65;;;21.67;;
43150;SDS011;28755;51.478;5.702;2023-11-21T10:08:09;41.58;;;22.58;;
43150;SDS011;28755;51.478;5.702;2023-11-21T10:10:36;44.22;;;23.42;;
43150;SDS011;28755;51.478;5.702;2023-11-21T10:13:04;44.17;;;23.80;;
43150;SDS011;28755;51.478;5.702;2023-11-21T10:15:31;48.15;;;24.17;;
43150;SDS011;28755;51.478;5.702;2023-11-21T10:18:00;43.60;;;23.75;;
43150;SDS011;28755;51.478;5.702;2023-11-21T10:20:34;44.17;;;24.20;;
43150;SDS011;28755;51.478;5.702;2023-11-21T10:23:00;48.25;;;25.15;;
43150;SDS011;28755;51.478;5.702;2023-11-21T10:25:29;55.47;;;27.27;;
43150;SDS011;28755;51.478;5.702;2023-11-21T10:27:59;46.22;;;24.92;;
43150;SDS011;28755;51.478;5.702;2023-11-21T10:30:36;54.22;;;25.88;;
43150;SDS011;28755;51.478;5.702;2023-11-21T10:33:03;58.47;;;26.23;;
43150;SDS011;28755;51.478;5.702;2023-11-21T10:38:07;53.67;;;27.33;;
43150;SDS011;28755;51.478;5.702;2023-11-21T10:40:39;58.67;;;28.38;;
43150;SDS011;28755;51.478;5.702;2023-11-21T10:43:11;55.20;;;27.08;;
43150;SDS011;28755;51.478;5.702;2023-11-21T10:45:40;53.67;;;26.33;;
43150;SDS011;28755;51.478;5.702;2023-11-21T10:48:07;63.45;;;26.85;;
43150;SDS011;28755;51.478;5.702;2023-11-21T10:50:35;56.72;;;27.48;;
43150;SDS011;28755;51.478;5.702;2023-11-21T10:53:04;61.08;;;27.70;;
43150;SDS011;28755;51.478;5.702;2023-11-21T10:55:31;56.65;;;28.55;;
43150;SDS011;28755;51.478;5.702;2023-11-21T10:58:01;62.45;;;28.50;;
43150;SDS011;28755;51.478;5.702;2023-11-21T11:00:29;66.90;;;30.02;;
43150;SDS011;28755;51.478;5.702;2023-11-21T11:02:55;62.30;;;29.92;;
43150;SDS011;28755;51.478;5.702;2023-11-21T11:05:24;63.90;;;30.75;;
43150;SDS011;28755;51.478;5.702;2023-11-21T11:08:05;69.15;;;30.85;;
43150;SDS011;28755;51.478;5.702;2023-11-21T11:10:37;58.33;;;29.00;;
43150;SDS011;28755;51.478;5.702;2023-11-21T11:13:03;65.72;;;30.25;;
43150;SDS011;28755;51.478;5.702;2023-11-21T11:15:31;62.25;;;29.55;;
43150;SDS011;28755;51.478;5.702;2023-11-21T11:17:58;64.25;;;30.02;;
43150;SDS011;28755;51.478;5.702;2023-11-21T11:20:25;67.97;;;30.05;;
43150;SDS011;28755;51.478;5.702;2023-11-21T11:28:07;60.03;;;30.00;;
43150;SDS011;28755;51.478;5.702;2023-11-21T11:38:32;64.65;;;30.88;;
43150;SDS011;28755;51.478;5.702;2023-11-21T11:41:04;73.03;;;30.85;;
43150;SDS011;28755;51.478;5.702;2023-11-21T11:46:09;64.80;;;30.25;;
43150;SDS011;28755;51.478;5.702;2023-11-21T11:48:39;66.68;;;29.98;;
43150;SDS011;28755;51.478;5.702;2023-11-21T11:51:06;59.42;;;30.02;;
43150;SDS011;28755;51.478;5.702;2023-11-21T11:53:45;61.30;;;28.08;;
43150;SDS011;28755;51.478;5.702;2023-11-21T11:56:24;56.13;;;30.00;;
43150;SDS011;28755;51.478;5.702;2023-11-21T11:58:57;56.33;;;27.77;;
43150;SDS011;28755;51.478;5.702;2023-11-21T12:01:25;57.60;;;28.85;;
43150;SDS011;28755;51.478;5.702;2023-11-21T12:06:36;48.70;;;26.10;;
43150;SDS011;28755;51.478;5.702;2023-11-21T12:09:02;49.83;;;25.40;;
43150;SDS011;28755;51.478;5.702;2023-11-21T12:11:32;48.85;;;25.83;;
43150;SDS011;28755;51.478;5.702;2023-11-21T12:14:00;48.75;;;25.92;;
43150;SDS011;28755;51.478;5.702;2023-11-21T12:16:27;49.50;;;26.13;;
43150;SDS011;28755;51.478;5.702;2023-11-21T12:18:53;50.88;;;25.65;;
43150;SDS011;28755;51.478;5.702;2023-11-21T12:21:19;44.45;;;24.70;;
43150;SDS011;28755;51.478;5.702;2023-11-21T12:23:46;49.78;;;25.17;;
43150;SDS011;28755;51.478;5.702;2023-11-21T12:26:12;50.45;;;26.35;;
43150;SDS011;28755;51.478;5.702;2023-11-21T12:28:38;51.38;;;25.98;;
43150;SDS011;28755;51.478;5.702;2023-11-21T12:31:04;42.50;;;24.60;;
43150;SDS011;28755;51.478;5.702;2023-11-21T12:33:31;42.35;;;24.67;;
43150;SDS011;28755;51.478;5.702;2023-11-21T12:36:00;44.63;;;23.77;;
43150;SDS011;28755;51.478;5.702;2023-11-21T12:38:33;45.63;;;24.65;;
43150;SDS011;28755;51.478;5.702;2023-11-21T12:41:00;50.75;;;24.70;;
43150;SDS011;28755;51.478;5.702;2023-11-21T12:43:25;48.38;;;24.83;;
43150;SDS011;28755;51.478;5.702;2023-11-21T12:45:51;50.58;;;26.30;;
43150;SDS011;28755;51.478;5.702;2023-11-21T12:48:31;51.87;;;24.97;;
43150;SDS011;28755;51.478;5.702;2023-11-21T12:50:57;51.15;;;26.30;;
43150;SDS011;28755;51.478;5.702;2023-11-21T12:53:25;48.70;;;26.83;;
43150;SDS011;28755;51.478;5.702;2023-11-21T12:55:51;55.22;;;28.13;;
43150;SDS011;28755;51.478;5.702;2023-11-21T12:58:20;51.97;;;27.15;;
43150;SDS011;28755;51.478;5.702;2023-11-21T13:00:48;49.63;;;27.52;;
43150;SDS011;28755;51.478;5.702;2023-11-21T13:03:15;47.70;;;26.48;;
43150;SDS011;28755;51.478;5.702;2023-11-21T13:05:43;48.70;;;27.27;;
43150;SDS011;28755;51.478;5.702;2023-11-21T13:08:11;47.38;;;25.90;;
43150;SDS011;28755;51.478;5.702;2023-11-21T13:10:38;45.92;;;25.67;;
43150;SDS011;28755;51.478;5.702;2023-11-21T13:13:07;51.13;;;26.42;;
43150;SDS011;28755;51.478;5.702;2023-11-21T13:15:38;43.78;;;26.10;;
43150;SDS011;28755;51.478;5.702;2023-11-21T13:18:06;48.42;;;25.75;;
43150;SDS011;28755;51.478;5.702;2023-11-21T13:20:32;43.15;;;25.08;;
43150;SDS011;28755;51.478;5.702;2023-11-21T13:22:58;43.47;;;24.65;;
43150;SDS011;28755;51.478;5.702;2023-11-21T13:25:24;45.67;;;24.67;;
43150;SDS011;28755;51.478;5.702;2023-11-21T13:27:53;46.65;;;25.25;;
43150;SDS011;28755;51.478;5.702;2023-11-21T13:30:24;43.83;;;25.55;;
43150;SDS011;28755;51.478;5.702;2023-11-21T13:32:58;42.13;;;24.15;;
43150;SDS011;28755;51.478;5.702;2023-11-21T13:35:30;42.67;;;24.20;;
43150;SDS011;28755;51.478;5.702;2023-11-21T13:38:02;42.80;;;24.52;;
43150;SDS011;28755;51.478;5.702;2023-11-21T13:40:31;46.30;;;26.08;;
43150;SDS011;28755;51.478;5.702;2023-11-21T13:42:59;47.08;;;25.40;;
43150;SDS011;28755;51.478;5.702;2023-11-21T13:45:29;47.10;;;24.77;;
43150;SDS011;28755;51.478;5.702;2023-11-21T13:47:55;48.75;;;26.08;;
43150;SDS011;28755;51.478;5.702;2023-11-21T13:50:27;47.78;;;26.67;;
43150;SDS011;28755;51.478;5.702;2023-11-21T13:52:59;49.70;;;26.65;;
43150;SDS011;28755;51.478;5.702;2023-11-21T13:55:35;51.67;;;28.20;;
43150;SDS011;28755;51.478;5.702;2023-11-21T13:58:02;54.05;;;27.13;;
43150;SDS011;28755;51.478;5.702;2023-11-21T14:00:34;56.70;;;27.98;;
43150;SDS011;28755;51.478;5.702;2023-11-21T14:03:17;55.70;;;27.77;;
43150;SDS011;28755;51.478;5.702;2023-11-21T14:05:46;54.05;;;27.92;;
43150;SDS011;28755;51.478;5.702;2023-11-21T14:08:16;55.30;;;26.75;;
43150;SDS011;28755;51.478;5.702;2023-11-21T14:10:45;58.17;;;28.02;;
43150;SDS011;28755;51.478;5.702;2023-11-21T14:13:15;50.33;;;25.10;;
43150;SDS011;28755;51.478;5.702;2023-11-21T14:15:42;51.58;;;26.02;;
43150;SDS011;28755;51.478;5.702;2023-11-21T14:18:12;49.25;;;25.48;;
43150;SDS011;28755;51.478;5.702;2023-11-21T14:23:07;45.75;;;24.85;;
43150;SDS011;28755;51.478;5.702;2023-11-21T14:25:36;51.58;;;26.52;;
43150;SDS011;28755;51.478;5.702;2023-11-21T14:28:04;49.70;;;26.00;;
43150;SDS011;28755;51.478;5.702;2023-11-21T14:30:31;46.85;;;24.55;;
43150;SDS011;28755;51.478;5.702;2023-11-21T14:32:59;49.03;;;25.75;;
43150;SDS011;28755;51.478;5.702;2023-11-21T14:35:25;45.47;;;24.80;;
43150;SDS011;28755;51.478;5.702;2023-11-21T14:37:52;45.10;;;24.63;;
43150;SDS011;28755;51.478;5.702;2023-11-21T14:40:18;45.05;;;24.42;;
43150;SDS011;28755;51.478;5.702;2023-11-21T14:42:49;44.40;;;22.83;;